Time;durP1;ratioP1;P1;durP2;ratioP2;P2;SDS_P1;SDS_P2;PMS_P1;PMS_P2;Temp;Humidity;BMP_temperature;BMP_pressure;BME280_temperature;BME280_humidity;BME280_pressure;Samples;Min_cycle;Max_cycle;Signal;HPM_P1;HPM_P2
2022/08/11 00:01:09;;;;;;;1.25;1.25;;;21.60;91.30;;;;;;5068591;28;20215;-83
2022/08/11 00:03:41;;;;;;;1.23;1.20;;;21.60;91.30;;;;;;5069468;28;20189;-82
2022/08/11 00:06:09;;;;;;;1.30;1.23;;;21.60;91.30;;;;;;5069911;28;20193;-81
2022/08/11 00:08:38;;;;;;;1.38;1.30;;;21.60;91.30;;;;;;5069394;28;20181;-82
2022/08/11 00:11:09;;;;;;;2.05;1.42;;;21.70;91.30;;;;;;5063914;28;20618;-82
2022/08/11 00:13:44;;;;;;;1.10;1.10;;;21.70;91.40;;;;;;5067721;28;20189;-83
2022/08/11 00:16:17;;;;;;;1.40;1.30;;;21.70;91.40;;;;;;5070545;28;20244;-82
2022/08/11 00:18:50;;;;;;;1.52;1.42;;;21.60;91.30;;;;;;5085504;28;20193;-81
2022/08/11 00:21:19;;;;;;;1.15;1.10;;;21.60;91.30;;;;;;5072721;28;20205;-81
2022/08/11 00:23:57;;;;;;;1.25;1.23;;;21.60;91.40;;;;;;5071151;28;20201;-79
2022/08/11 00:26:26;;;;;;;1.10;1.10;;;21.50;91.40;;;;;;5069912;28;20683;-81
2022/08/11 00:28:55;;;;;;;1.30;1.30;;;21.50;91.50;;;;;;5070295;28;20194;-81
2022/08/11 00:31:30;;;;;;;1.35;1.27;;;21.40;91.50;;;;;;5069268;28;20652;-81
2022/08/11 00:33:59;;;;;;;1.45;1.35;;;21.40;91.60;;;;;;5066076;28;20294;-80
2022/08/11 00:36:29;;;;;;;1.30;1.20;;;21.40;91.60;;;;;;5068017;28;20200;-81
2022/08/11 00:39:05;;;;;;;1.40;1.30;;;21.40;91.60;;;;;;5066642;28;20197;-81
2022/08/11 00:41:36;;;;;;;1.15;1.15;;;21.40;91.60;;;;;;5067880;28;20311;-82
2022/08/11 00:44:31;;;;;;;1.10;1.05;;;21.40;91.60;;;;;;5070228;28;20201;-83
2022/08/11 00:47:12;;;;;;;1.23;1.23;;;21.40;91.60;;;;;;5068255;28;20580;-82
2022/08/11 00:49:51;;;;;;;2.55;1.40;;;21.40;91.60;;;;;;5068393;28;20285;-82
2022/08/11 00:52:33;;;;;;;2.42;1.40;;;21.40;91.70;;;;;;5069250;28;20196;-82
2022/08/11 00:56:00;;;;;;;1.10;1.10;;;21.40;91.70;;;;;;5067484;28;20316;-82
2022/08/11 00:59:14;;;;;;;1.23;1.23;;;21.30;91.70;;;;;;5028654;28;20199;-82
2022/08/11 01:01:57;;;;;;;1.33;1.27;;;21.30;91.80;;;;;;4951233;28;20614;-82
2022/08/11 01:04:56;;;;;;;1.50;1.40;;;21.30;92.20;;;;;;5019097;28;20509;-82
2022/08/11 01:07:50;;;;;;;1.55;1.30;;;21.30;91.90;;;;;;5063148;28;20279;-82
2022/08/11 01:10:52;;;;;;;1.60;1.50;;;21.20;91.80;;;;;;5066239;28;20201;-82
2022/08/11 01:13:46;;;;;;;2.03;1.70;;;21.20;91.80;;;;;;5068027;28;20200;-80
2022/08/11 01:16:52;;;;;;;1.55;1.45;;;21.20;91.90;;;;;;5067764;28;20250;-78
2022/08/11 01:19:56;;;;;;;1.50;1.40;;;21.10;91.90;;;;;;5029181;28;20250;-78
2022/08/11 01:23:02;;;;;;;2.78;1.50;;;21.10;92.00;;;;;;5067447;28;20193;-79
2022/08/11 01:26:02;;;;;;;1.73;1.60;;;21.10;92.00;;;;;;5050218;28;20238;-79
2022/08/11 01:28:55;;;;;;;1.60;1.50;;;21.10;92.00;;;;;;5065345;28;20304;-79
2022/08/11 01:31:56;;;;;;;1.50;1.40;;;21.10;92.00;;;;;;5069017;28;20303;-79
2022/08/11 01:35:06;;;;;;;2.15;1.63;;;21.10;92.10;;;;;;5036342;28;20278;-80
2022/08/11 01:38:07;;;;;;;1.75;1.63;;;21.00;92.10;;;;;;5068515;28;20203;-79
2022/08/11 01:41:03;;;;;;;1.45;1.35;;;21.00;92.10;;;;;;5067073;28;20605;-80
2022/08/11 01:47:02;;;;;;;1.70;1.60;;;21.00;92.20;;;;;;5066292;28;20278;-78
2022/08/11 01:49:56;;;;;;;1.85;1.52;;;21.00;92.20;;;;;;5068224;28;20207;-79
2022/08/11 01:52:28;;;;;;;1.77;1.38;;;20.90;92.20;;;;;;5068778;28;20203;-79
2022/08/11 01:55:07;;;;;;;1.60;1.50;;;20.90;92.30;;;;;;5065697;28;20629;-79
2022/08/11 01:57:42;;;;;;;1.45;1.35;;;20.90;92.30;;;;;;5067592;28;20189;-79
2022/08/11 02:00:14;;;;;;;1.15;1.15;;;20.90;92.20;;;;;;5067998;28;20526;-78
2022/08/11 02:02:53;;;;;;;1.48;1.38;;;20.90;92.30;;;;;;5071498;28;20299;-86
2022/08/11 02:05:28;;;;;;;1.25;1.15;;;20.90;92.30;;;;;;5067196;28;20269;-84
2022/08/11 02:08:09;;;;;;;2.17;1.10;;;20.80;92.30;;;;;;5066795;28;20212;-78
2022/08/11 02:13:36;;;;;;;1.52;1.42;;;20.80;92.40;;;;;;5065650;28;20293;-85
2022/08/11 02:16:12;;;;;;;1.48;1.38;;;20.80;92.40;;;;;;5083241;28;20204;-84
2022/08/11 02:24:34;;;;;;;1.75;1.65;;;20.80;92.60;;;;;;5043849;28;20205;-87
2022/08/11 02:27:07;;;;;;;1.45;1.35;;;20.70;92.60;;;;;;5065738;28;20282;-88
2022/08/11 02:29:42;;;;;;;1.50;1.40;;;20.70;92.60;;;;;;5067257;28;20202;-87
2022/08/11 02:35:18;;;;;;;1.40;1.30;;;20.70;92.80;;;;;;5029825;28;20559;-87
2022/08/11 02:37:53;;;;;;;1.50;1.40;;;20.70;92.90;;;;;;5069828;28;20219;-87
2022/08/11 02:40:34;;;;;;;1.50;1.40;;;20.70;92.80;;;;;;5065146;28;20282;-88
2022/08/11 02:43:36;;;;;;;1.33;1.30;;;20.70;92.80;;;;;;5064832;28;20331;-87
2022/08/11 02:46:20;;;;;;;1.40;1.30;;;20.60;92.70;;;;;;5068987;28;20193;-88
2022/08/11 02:51:54;;;;;;;3.17;1.80;;;20.60;92.80;;;;;;5066006;28;20276;-88
2022/08/11 02:54:31;;;;;;;1.35;1.33;;;20.60;92.80;;;;;;5069076;28;20232;-88
2022/08/11 02:57:04;;;;;;;1.70;1.60;;;20.70;92.90;;;;;;5063010;28;20772;-88
2022/08/11 02:59:53;;;;;;;1.63;1.52;;;20.60;92.90;;;;;;5067399;28;20268;-87
2022/08/11 03:02:54;;;;;;;1.25;1.17;;;20.80;93.10;;;;;;5081955;28;20205;-88
2022/08/11 03:05:30;;;;;;;1.30;1.20;;;20.60;93.00;;;;;;5060595;28;20201;-88
2022/08/11 03:08:17;;;;;;;1.25;1.15;;;20.60;93.00;;;;;;5078227;28;20217;-90
2022/08/11 03:16:47;;;;;;;1.48;1.38;;;20.50;93.10;;;;;;5069737;28;20296;-84
2022/08/11 03:19:24;;;;;;;1.55;1.38;;;20.60;93.20;;;;;;5070650;28;20198;-84
2022/08/11 03:22:02;;;;;;;1.23;1.23;;;20.60;93.20;;;;;;5070656;28;20197;-85
2022/08/11 03:24:36;;;;;;;1.63;1.52;;;20.60;93.20;;;;;;5071341;28;20201;-85
2022/08/11 03:27:09;;;;;;;1.30;1.20;;;20.60;93.20;;;;;;5067008;28;20979;-84
2022/08/11 03:29:42;;;;;;;1.70;1.33;;;20.60;93.20;;;;;;5068215;28;20932;-85
2022/08/11 03:32:19;;;;;;;1.60;1.50;;;20.70;93.30;;;;;;5071563;28;20189;-85
2022/08/11 03:34:47;;;;;;;1.40;1.30;;;20.60;93.20;;;;;;5071851;28;20189;-88
2022/08/11 03:37:51;;;;;;;1.67;1.50;;;20.60;93.20;;;;;;5072647;28;20638;-86
2022/08/11 03:43:54;;;;;;;1.42;1.05;;;20.60;93.30;;;;;;5071150;28;20188;-85
2022/08/11 03:46:43;;;;;;;1.55;1.42;;;20.60;93.40;;;;;;5066301;28;20628;-86
2022/08/11 03:49:28;;;;;;;1.23;1.23;;;20.60;93.40;;;;;;5069129;28;20206;-87
2022/08/11 03:52:07;;;;;;;2.47;1.48;;;20.60;93.50;;;;;;5069982;28;20204;-87
2022/08/11 03:54:47;;;;;;;1.58;1.48;;;20.60;93.60;;;;;;5070421;28;20696;-87
2022/08/11 03:58:02;;;;;;;2.65;1.30;;;20.50;93.60;;;;;;5085660;28;20284;-87
2022/08/11 04:01:03;;;;;;;1.50;1.40;;;20.60;93.70;;;;;;5071791;28;20201;-88
2022/08/11 04:03:58;;;;;;;1.58;1.30;;;20.60;93.80;;;;;;5069255;28;20680;-86
2022/08/11 04:06:54;;;;;;;1.20;1.20;;;20.60;93.90;;;;;;5069545;28;20625;-87
2022/08/11 04:10:04;;;;;;;1.48;1.38;;;20.60;93.90;;;;;;5069458;28;20216;-82
2022/08/11 04:12:55;;;;;;;1.33;1.23;;;20.60;93.90;;;;;;5067837;28;20228;-79
2022/08/11 04:15:59;;;;;;;1.38;1.27;;;20.60;94.00;;;;;;5069017;28;20193;-82
2022/08/11 04:19:02;;;;;;;1.30;1.30;;;20.60;94.10;;;;;;5087085;28;20536;-83
2022/08/11 04:22:19;;;;;;;1.30;1.20;;;20.60;94.10;;;;;;5071068;28;20427;-83
2022/08/11 04:25:39;;;;;;;1.38;1.27;;;20.60;94.20;;;;;;5070469;28;20185;-82
2022/08/11 04:29:04;;;;;;;1.38;1.27;;;20.70;94.30;;;;;;5069919;28;20189;-80
2022/08/11 04:36:12;;;;;;;;;;;;;;;;;;;;;
2022/08/11 04:39:59;;;;;;;;;;;;;;;;;;;;;
2022/08/11 04:43:30;;;;;;;1.50;1.40;;;20.80;94.90;;;;;;5061233;28;20201;-78
2022/08/11 04:46:17;;;;;;;1.83;1.40;;;20.80;94.60;;;;;;5068802;28;20207;-77
2022/08/11 05:02:09;;;;;;;1.30;1.20;;;21.00;94.90;;;;;;5040911;28;20700;-77
2022/08/11 05:08:33;;;;;;;1.20;1.10;;;21.10;95.10;;;;;;5068922;28;20193;-78
2022/08/11 05:11:28;;;;;;;2.17;1.30;;;21.10;95.20;;;;;;5067534;28;20286;-77
2022/08/11 05:37:04;;;;;;;1.58;1.48;;;21.50;96.00;;;;;;5083714;28;20204;-75
2022/08/11 05:56:31;;;;;;;5.35;1.80;;;21.70;96.60;;;;;;5065565;28;20269;-73
2022/08/11 05:58:58;;;;;;;2.50;2.08;;;21.70;96.70;;;;;;5066108;28;20185;-75
2022/08/11 06:01:29;;;;;;;3.35;2.00;;;21.80;96.80;;;;;;5068077;28;20189;-73
2022/08/11 06:04:15;;;;;;;3.63;2.30;;;21.80;96.80;;;;;;5066175;28;20600;-73
2022/08/11 06:06:55;;;;;;;2.25;1.80;;;21.80;97.00;;;;;;5066183;28;20258;-73
2022/08/11 06:09:30;;;;;;;1.63;1.52;;;21.80;97.00;;;;;;5065124;28;20209;-74
2022/08/11 06:12:00;;;;;;;2.25;1.50;;;21.80;97.00;;;;;;5065681;28;20197;-74
2022/08/11 06:14:30;;;;;;;3.88;1.52;;;21.80;97.00;;;;;;5067246;28;20667;-74
2022/08/11 06:17:52;;;;;;;8.13;1.70;;;21.90;97.10;;;;;;5068239;28;20272;-77
2022/08/11 06:20:53;;;;;;;2.65;1.98;;;21.90;97.20;;;;;;5024981;28;20340;-77
2022/08/11 06:23:42;;;;;;;3.17;2.03;;;21.90;97.40;;;;;;5036060;28;20211;-77
2022/08/11 06:26:11;;;;;;;3.03;2.00;;;22.00;97.50;;;;;;5070297;28;20196;-79
2022/08/11 06:28:41;;;;;;;3.40;1.80;;;22.00;97.70;;;;;;5072191;28;20640;-78
2022/08/11 06:31:13;;;;;;;4.45;2.22;;;21.50;97.50;;;;;;5070310;28;20280;-77
2022/08/11 06:33:54;;;;;;;2.55;1.95;;;22.10;97.80;;;;;;5073156;28;20201;-77
2022/08/11 06:36:31;;;;;;;2.08;1.73;;;22.10;97.80;;;;;;5073361;28;20284;-77
2022/08/11 06:39:09;;;;;;;3.00;2.03;;;22.10;97.70;;;;;;5072814;28;20426;-78
2022/08/11 06:41:45;;;;;;;3.80;1.95;;;22.10;97.70;;;;;;5068652;28;20243;-77
2022/08/11 06:44:24;;;;;;;6.72;2.55;;;22.30;97.70;;;;;;5068499;28;20227;-77
2022/08/11 06:46:53;;;;;;;6.15;2.30;;;22.30;97.50;;;;;;5069217;28;20185;-77
2022/08/11 06:52:13;;;;;;;2.00;1.90;;;22.50;97.40;;;;;;5069688;28;20274;-88
2022/08/11 06:54:43;;;;;;;1.65;1.55;;;22.50;97.30;;;;;;5070356;28;20239;-82
2022/08/11 07:02:48;;;;;;;3.42;1.17;;;22.60;97.10;;;;;;5082832;28;20660;-79
2022/08/11 07:05:26;;;;;;;3.20;1.90;;;22.80;97.10;;;;;;5067580;28;20231;-83
2022/08/11 07:17:08;;;;;;;2.00;1.70;;;23.20;96.70;;;;;;5091870;28;20181;-82
2022/08/11 07:31:00;;;;;;;1.30;1.30;;;23.50;95.70;;;;;;5094008;28;20540;-79
2022/08/11 07:33:42;;;;;;;3.05;2.15;;;23.80;95.70;;;;;;5094114;28;20192;-80
2022/08/11 07:36:12;;;;;;;1.70;1.60;;;24.30;95.60;;;;;;5083466;28;20827;-79
2022/08/11 07:38:43;;;;;;;1.70;1.52;;;23.90;95.30;;;;;;5081749;28;20286;-80
2022/08/11 07:41:14;;;;;;;2.88;1.40;;;24.00;95.20;;;;;;5066818;28;20239;-79
2022/08/11 07:43:42;;;;;;;1.33;1.30;;;24.10;95.10;;;;;;5065841;28;20197;-80
2022/08/11 07:54:28;;;;;;;1.48;1.42;;;24.30;94.70;;;;;;5069429;28;20292;-79
2022/08/11 07:56:57;;;;;;;1.10;1.10;;;24.40;94.70;;;;;;5071109;28;20251;-81
2022/08/11 08:19:13;;;;;;;0.90;0.90;;;24.90;93.70;;;;;;5067554;28;20178;-79
2022/08/11 08:21:41;;;;;;;1.30;1.27;;;25.00;93.60;;;;;;5069121;28;20205;-79
2022/08/11 08:24:08;;;;;;;0.90;0.90;;;25.10;93.50;;;;;;5068420;28;20569;-80
2022/08/11 08:32:12;;;;;;;1.10;1.00;;;25.20;93.00;;;;;;5070170;28;20561;-79
2022/08/11 08:34:40;;;;;;;1.00;1.00;;;25.30;92.90;;;;;;5069760;28;20220;-80
2022/08/11 08:37:08;;;;;;;1.10;1.10;;;25.30;92.80;;;;;;5068313;28;20209;-80
2022/08/11 08:39:38;;;;;;;0.85;0.85;;;25.40;92.60;;;;;;5069952;28;20200;-80
2022/08/11 08:42:10;;;;;;;0.70;0.70;;;25.40;92.50;;;;;;5069355;28;20680;-80
2022/08/11 08:44:42;;;;;;;0.90;0.90;;;25.50;92.40;;;;;;5066328;28;20198;-79
2022/08/11 08:47:14;;;;;;;0.95;0.95;;;25.50;92.10;;;;;;5066735;28;20534;-80
2022/08/11 08:49:49;;;;;;;1.00;1.00;;;25.60;92.00;;;;;;5067189;28;20213;-80
2022/08/11 08:52:20;;;;;;;1.20;1.10;;;25.60;91.80;;;;;;5068531;28;20287;-80
2022/08/11 08:54:52;;;;;;;2.15;1.63;;;25.60;91.60;;;;;;5067817;28;20283;-80
2022/08/11 08:57:23;;;;;;;1.20;1.20;;;25.70;91.20;;;;;;5070599;28;20280;-80
2022/08/11 08:59:52;;;;;;;1.02;1.02;;;25.70;91.00;;;;;;5071536;28;20304;-78
2022/08/11 09:02:24;;;;;;;3.28;1.60;;;25.40;90.70;;;;;;5065833;28;20623;-83
2022/08/11 09:04:51;;;;;;;1.30;1.20;;;25.80;90.50;;;;;;5076609;28;20189;-83
2022/08/11 09:07:23;;;;;;;1.08;1.08;;;25.80;90.40;;;;;;5081462;28;20207;-83
2022/08/11 09:09:53;;;;;;;0.95;0.95;;;25.90;90.20;;;;;;5080046;28;20255;-81
2022/08/11 09:12:22;;;;;;;0.95;0.90;;;25.90;90.00;;;;;;5073761;28;20560;-85
2022/08/11 09:15:02;;;;;;;0.70;0.70;;;25.90;89.20;;;;;;5069887;28;20201;-83
2022/08/11 09:17:34;;;;;;;4.63;1.00;;;26.00;88.90;;;;;;5065101;28;20203;-83
2022/08/11 09:20:05;;;;;;;1.48;1.10;;;26.00;88.40;;;;;;5071577;28;20197;-82
2022/08/11 09:28:09;;;;;;;2.97;1.45;;;26.20;87.70;;;;;;5075004;28;20229;-82
2022/08/11 09:30:41;;;;;;;1.40;1.40;;;26.20;86.90;;;;;;5070883;28;20197;-84
2022/08/11 09:33:11;;;;;;;1.25;1.20;;;26.20;86.10;;;;;;5067180;28;20686;-82
2022/08/11 09:35:42;;;;;;;1.67;1.58;;;26.30;85.50;;;;;;5067674;28;20688;-83
2022/08/11 09:40:57;;;;;;;1.40;1.30;;;26.30;84.70;;;;;;5066945;28;20191;-83
2022/08/11 09:46:12;;;;;;;1.20;1.20;;;26.40;84.10;;;;;;5066013;28;20223;-83
2022/08/11 09:48:43;;;;;;;1.17;1.17;;;26.50;83.20;;;;;;5065266;28;20201;-83
2022/08/11 09:51:11;;;;;;;2.35;1.67;;;26.60;83.00;;;;;;5069273;28;20189;-83
2022/08/11 09:53:40;;;;;;;1.70;1.60;;;26.60;81.40;;;;;;5069123;28;20235;-84
2022/08/11 09:58:59;;;;;;;3.03;1.20;;;26.70;78.80;;;;;;5088733;28;20771;-83
2022/08/11 10:01:35;;;;;;;1.33;1.23;;;26.70;78.90;;;;;;5079457;28;20203;-82
2022/08/11 10:04:08;;;;;;;4.97;2.42;;;26.80;78.50;;;;;;5071339;28;20936;-82
2022/08/11 10:09:25;;;;;;;8.23;2.67;;;26.80;74.30;;;;;;5069110;28;20209;-81
2022/08/11 10:11:56;;;;;;;3.63;1.98;;;26.80;72.90;;;;;;5068813;28;20217;-80
2022/08/11 10:17:10;;;;;;;1.20;1.10;;;26.90;74.30;;;;;;5067619;28;20299;-82
2022/08/11 10:19:39;;;;;;;1.23;1.23;;;27.00;74.00;;;;;;5066955;28;20292;-82
2022/08/11 10:27:39;;;;;;;1.80;1.33;;;27.30;71.30;;;;;;5064987;28;20181;-81
2022/08/11 10:35:39;;;;;;;2.72;1.25;;;27.40;66.30;;;;;;5063473;28;20247;-81
2022/08/11 10:38:06;;;;;;;1.15;1.10;;;27.40;65.20;;;;;;5067179;28;20273;-81
2022/08/11 10:40:34;;;;;;;0.70;0.70;;;27.40;65.50;;;;;;5064652;28;20190;-82
2022/08/11 10:43:04;;;;;;;1.00;1.00;;;27.40;65.30;;;;;;5067293;28;20269;-82
2022/08/11 10:48:21;;;;;;;0.80;0.80;;;27.60;64.60;;;;;;5068000;28;20196;-82
2022/08/11 10:59:08;;;;;;;1.23;1.23;;;28.00;64.20;;;;;;5066291;28;20185;-78
2022/08/11 11:01:38;;;;;;;1.13;1.10;;;28.10;64.80;;;;;;5065509;28;20201;-80
2022/08/11 11:04:12;;;;;;;1.95;1.33;;;28.10;65.40;;;;;;5066468;28;20628;-80
2022/08/11 11:06:49;;;;;;;1.00;1.00;;;28.10;65.50;;;;;;5065150;28;20217;-80
2022/08/11 11:09:18;;;;;;;2.35;1.27;;;28.00;65.40;;;;;;5071067;28;20211;-81
2022/08/11 11:20:24;;;;;;;1.30;1.30;;;28.00;63.60;;;;;;5068043;28;20205;-80
2022/08/11 11:22:56;;;;;;;3.03;1.27;;;27.90;62.80;;;;;;5068311;28;20217;-78
2022/08/11 11:25:36;;;;;;;1.02;1.02;;;27.90;62.70;;;;;;5067727;28;20252;-78
2022/08/11 11:28:31;;;;;;;4.18;1.30;;;27.90;62.90;;;;;;5070189;28;20233;-79
2022/08/11 11:31:10;;;;;;;1.70;1.23;;;27.80;62.50;;;;;;5067030;28;20205;-81
2022/08/11 11:33:55;;;;;;;1.20;1.10;;;27.90;62.20;;;;;;5064098;28;20196;-80
2022/08/11 11:36:32;;;;;;;1.10;1.10;;;27.90;62.00;;;;;;5068818;28;20224;-78
2022/08/11 11:39:00;;;;;;;1.20;1.20;;;27.90;61.50;;;;;;5070866;28;20216;-80
2022/08/11 11:41:28;;;;;;;1.05;1.05;;;27.90;61.30;;;;;;5068780;28;20565;-79
2022/08/11 11:43:56;;;;;;;1.20;1.20;;;27.90;61.40;;;;;;5066608;28;20611;-81
2022/08/11 11:46:26;;;;;;;2.17;1.70;;;27.90;61.00;;;;;;5069040;28;20189;-81
2022/08/11 11:48:54;;;;;;;2.03;1.42;;;28.00;61.20;;;;;;5068286;28;20656;-82
2022/08/11 11:51:24;;;;;;;2.50;1.65;;;27.90;60.80;;;;;;5069321;28;20589;-82
2022/08/11 11:53:52;;;;;;;1.77;1.52;;;28.00;60.30;;;;;;5069013;28;20209;-81
2022/08/11 11:56:21;;;;;;;1.80;1.58;;;28.00;60.40;;;;;;5071185;28;20321;-81
2022/08/11 12:01:34;;;;;;;1.23;1.13;;;28.00;59.70;;;;;;5069761;28;20653;-82
2022/08/11 12:04:05;;;;;;;1.45;1.08;;;28.00;60.20;;;;;;5068593;28;20192;-81
2022/08/11 12:06:34;;;;;;;4.93;1.20;;;28.10;60.70;;;;;;5071006;28;20215;-85
2022/08/11 12:09:01;;;;;;;1.75;1.15;;;28.10;60.60;;;;;;5068859;28;20193;-80
2022/08/11 12:14:18;;;;;;;1.00;1.00;;;28.20;61.30;;;;;;5069603;28;20659;-80
2022/08/11 12:16:47;;;;;;;8.48;1.70;;;28.20;61.50;;;;;;5067900;28;20305;-82
2022/08/11 12:19:16;;;;;;;2.35;1.45;;;28.30;61.40;;;;;;5067798;28;20197;-81
2022/08/11 12:27:20;;;;;;;0.98;0.98;;;28.30;61.00;;;;;;5067048;28;20181;-82
2022/08/11 12:29:50;;;;;;;0.75;0.75;;;28.30;59.70;;;;;;5068659;28;20213;-81
2022/08/11 12:32:18;;;;;;;1.17;1.08;;;28.30;59.00;;;;;;5068958;28;20238;-82
2022/08/11 12:34:45;;;;;;;2.45;1.35;;;28.20;57.90;;;;;;5068877;28;20201;-81
2022/08/11 12:37:22;;;;;;;1.83;1.48;;;28.20;57.60;;;;;;5070321;28;20212;-80
2022/08/11 12:45:30;;;;;;;1.23;1.23;;;28.20;56.50;;;;;;5067977;28;20184;-82
2022/08/11 12:54:06;;;;;;;2.63;0.90;;;28.10;58.00;;;;;;5068140;28;20614;-82
2022/08/11 13:04:58;;;;;;;1.40;1.10;;;28.10;57.80;;;;;;5066815;28;20194;-81
2022/08/11 13:07:27;;;;;;;0.90;0.90;;;28.10;57.70;;;;;;5069345;28;21117;-81
2022/08/11 13:09:57;;;;;;;1.00;1.00;;;28.10;57.40;;;;;;5074456;28;20641;-81
2022/08/11 13:15:13;;;;;;;2.47;1.20;;;28.10;57.10;;;;;;5069232;28;20193;-83
2022/08/11 13:17:42;;;;;;;1.70;1.60;;;28.20;56.80;;;;;;5075166;28;20205;-83
2022/08/11 13:20:11;;;;;;;1.10;1.10;;;28.20;56.80;;;;;;5071687;28;20197;-83
2022/08/11 13:22:44;;;;;;;2.50;0.98;;;28.10;57.10;;;;;;5069206;28;20197;-82
2022/08/11 13:25:15;;;;;;;1.00;1.00;;;28.20;57.10;;;;;;5068566;28;20681;-82
2022/08/11 13:27:44;;;;;;;1.30;1.13;;;28.10;57.20;;;;;;5068631;28;20255;-84
2022/08/11 13:32:59;;;;;;;1.60;1.50;;;28.20;57.40;;;;;;5066110;28;20196;-82
2022/08/11 13:35:33;;;;;;;3.28;1.67;;;28.20;56.70;;;;;;5063079;28;20530;-80
2022/08/11 13:38:03;;;;;;;0.90;0.90;;;28.30;56.90;;;;;;5063912;28;20264;-91
2022/08/11 13:40:35;;;;;;;2.28;1.35;;;28.30;57.50;;;;;;5064238;28;20205;-83
2022/08/11 13:43:08;;;;;;;1.42;1.23;;;28.30;57.80;;;;;;5068231;28;20557;-82
2022/08/11 13:45:36;;;;;;;2.13;1.00;;;28.30;58.30;;;;;;5084847;28;20304;-77
2022/08/11 13:48:08;;;;;;;1.00;1.00;;;28.20;58.50;;;;;;5068666;28;20251;-80
2022/08/11 13:53:27;;;;;;;1.65;1.02;;;28.10;58.60;;;;;;5062029;28;20190;-86
2022/08/11 13:55:58;;;;;;;0.73;0.73;;;28.20;58.70;;;;;;5064240;28;20786;-83
2022/08/11 13:58:27;;;;;;;0.80;0.80;;;28.10;58.70;;;;;;5067034;28;20568;-83
2022/08/11 14:00:55;;;;;;;1.20;0.90;;;28.10;58.80;;;;;;5068164;28;20193;-83
2022/08/11 14:03:26;;;;;;;0.90;0.90;;;28.10;58.90;;;;;;5065466;28;20205;-85
2022/08/11 14:05:57;;;;;;;0.90;0.90;;;28.00;58.90;;;;;;5067903;28;20193;-82
2022/08/11 14:08:35;;;;;;;1.17;1.05;;;28.00;59.00;;;;;;5065916;28;20265;-91
2022/08/11 14:13:52;;;;;;;1.75;1.10;;;28.00;59.20;;;;;;5066583;28;20212;-88
2022/08/11 14:16:24;;;;;;;1.00;1.00;;;27.90;59.20;;;;;;5067509;28;20263;-87
2022/08/11 14:18:55;;;;;;;0.80;0.80;;;28.00;59.40;;;;;;5067140;28;20620;-86
2022/08/11 14:24:13;;;;;;;1.20;0.93;;;27.90;59.40;;;;;;5068001;28;20557;-82
2022/08/11 14:26:43;;;;;;;0.98;0.98;;;27.90;59.60;;;;;;5068704;28;20219;-84
2022/08/11 14:29:16;;;;;;;1.00;1.00;;;27.90;59.60;;;;;;5067923;28;20201;-85
2022/08/11 14:31:47;;;;;;;1.42;1.10;;;27.90;59.90;;;;;;5085223;28;20228;-83
2022/08/11 14:34:47;;;;;;;2.22;1.00;;;27.90;59.80;;;;;;5065983;28;20197;-87
2022/08/11 14:37:22;;;;;;;3.15;0.80;;;27.90;60.60;;;;;;5067485;28;20185;-83
2022/08/11 14:39:53;;;;;;;1.13;1.10;;;27.80;60.00;;;;;;5070878;28;20211;-80
2022/08/11 14:48:01;;;;;;;1.00;0.98;;;27.40;60.40;;;;;;5081125;28;20186;-80
2022/08/11 14:50:29;;;;;;;2.58;1.00;;;27.80;61.00;;;;;;5076160;28;20228;-80
2022/08/11 14:53:00;;;;;;;1.45;1.23;;;27.70;61.20;;;;;;5083112;28;20197;-81
2022/08/11 14:58:29;;;;;;;1.30;0.98;;;27.70;61.80;;;;;;5087001;28;20200;-79
2022/08/11 15:01:00;;;;;;;1.40;1.30;;;27.60;61.80;;;;;;5082179;28;20308;-80
2022/08/11 15:03:33;;;;;;;1.48;1.35;;;27.50;62.00;;;;;;5072521;28;20287;-81
2022/08/11 15:06:03;;;;;;;1.38;1.27;;;27.50;62.40;;;;;;5071572;28;20236;-80
2022/08/11 15:18:05;;;;;;;1.92;1.15;;;27.30;62.70;;;;;;5071287;28;20204;-81
2022/08/11 15:26:13;;;;;;;0.93;0.93;;;27.20;63.50;;;;;;5068663;28;20595;-81
2022/08/11 15:37:34;;;;;;;0.90;0.90;;;27.00;64.10;;;;;;5067838;28;20287;-82
2022/08/11 15:46:01;;;;;;;2.60;1.23;;;26.90;64.60;;;;;;5067274;28;20225;-82
2022/08/11 15:48:47;;;;;;;1.73;1.20;;;26.90;64.60;;;;;;5070420;28;20259;-81
2022/08/11 15:51:29;;;;;;;1.20;1.20;;;26.80;64.80;;;;;;5070135;28;20300;-81
2022/08/11 15:53:59;;;;;;;1.40;1.30;;;27.10;65.00;;;;;;5069908;28;20658;-82
2022/08/11 15:56:57;;;;;;;1.20;1.10;;;26.70;64.70;;;;;;5068579;28;20244;-81
2022/08/11 16:05:19;;;;;;;2.22;1.25;;;26.60;65.60;;;;;;5069434;28;20656;-81
2022/08/11 16:07:49;;;;;;;1.00;1.00;;;26.60;66.50;;;;;;5068702;28;20196;-81
2022/08/11 16:10:23;;;;;;;0.93;0.93;;;26.50;66.10;;;;;;5066733;28;20221;-81
2022/08/11 16:18:40;;;;;;;0.80;0.80;;;26.40;67.00;;;;;;5070406;28;20192;-81
2022/08/11 16:21:12;;;;;;;0.85;0.85;;;26.50;68.10;;;;;;5072476;28;20664;-84
2022/08/11 16:23:42;;;;;;;1.10;1.10;;;26.40;67.50;;;;;;5070582;28;20199;-86
2022/08/11 16:26:10;;;;;;;0.90;0.90;;;26.40;68.00;;;;;;5069612;28;20209;-84
2022/08/11 16:28:39;;;;;;;0.95;0.95;;;26.40;67.70;;;;;;5069106;28;20186;-82
2022/08/11 16:31:09;;;;;;;0.98;0.98;;;26.40;67.80;;;;;;5069817;28;20223;-79
2022/08/11 16:33:40;;;;;;;1.02;1.02;;;26.40;68.00;;;;;;5085480;28;20752;-89
2022/08/11 16:39:02;;;;;;;0.80;0.80;;;26.30;68.40;;;;;;5060789;28;20197;-82
2022/08/11 16:47:10;;;;;;;1.20;1.10;;;26.30;69.20;;;;;;5067827;28;20717;-78
2022/08/11 16:49:41;;;;;;;28.45;1.27;;;26.30;69.40;;;;;;5083167;28;20661;-77
2022/08/11 16:52:11;;;;;;;0.80;0.80;;;26.30;69.40;;;;;;5068768;28;20201;-78
2022/08/11 16:54:40;;;;;;;0.80;0.80;;;26.20;69.30;;;;;;5069178;28;20693;-78
2022/08/11 16:59:58;;;;;;;0.85;0.85;;;26.20;69.50;;;;;;5079083;28;20241;-77
2022/08/11 17:13:44;;;;;;;0.75;0.75;;;26.10;70.90;;;;;;5077284;28;20193;-79
2022/08/11 17:16:13;;;;;;;0.70;0.70;;;26.10;71.00;;;;;;5077896;28;20207;-80
2022/08/11 17:18:49;;;;;;;0.65;0.65;;;26.10;71.30;;;;;;5076887;28;20193;-87
2022/08/11 17:21:20;;;;;;;0.70;0.70;;;25.90;71.30;;;;;;5090591;28;20188;-88
2022/08/11 17:23:53;;;;;;;1.30;0.60;;;26.00;71.60;;;;;;5069837;28;20246;-78
2022/08/11 17:26:25;;;;;;;0.70;0.70;;;26.00;71.40;;;;;;5067713;28;20656;-77
2022/08/11 17:28:56;;;;;;;0.80;0.80;;;26.10;71.60;;;;;;5069070;28;20660;-77
2022/08/11 17:36:58;;;;;;;0.60;0.60;;;26.00;71.90;;;;;;5066587;28;20283;-78
2022/08/11 17:39:30;;;;;;;0.50;0.50;;;26.00;72.00;;;;;;5068281;28;20231;-79
2022/08/11 17:50:15;;;;;;;0.60;0.60;;;26.00;72.60;;;;;;5064975;28;20254;-79
2022/08/11 18:01:06;;;;;;;0.65;0.65;;;25.90;73.00;;;;;;5066119;28;20213;-83
2022/08/11 18:03:38;;;;;;;1.15;0.63;;;25.90;73.10;;;;;;5067656;28;20511;-82
2022/08/11 18:06:07;;;;;;;0.88;0.68;;;25.90;73.20;;;;;;5068011;28;20193;-83
